MPTO/PTY METAR and TAF weather

Enter ICAO airport designator
Station Type Date Time Source
MPTO METAR 2020/01/18 13:00 UTC NOAA

MPTO 181300Z 31003KT 9000 SCT018 27/23 Q1009 NOSIG


Station Type Date Time Source
MPTO Decoded METAR 2020/01/18 13:00 UTC NOAA

Tocumen, Panama (MPTO) 09-03N 079-22W
Jan 18, 2020 - 08:00 AM EST / 2020.01.18 1300 UTC
Wind: from the NW (310 degrees) at 3 MPH (3 KT):0
Visibility: 5 mile(s):0
Sky conditions: partly cloudy
Temperature: 80 F (27 C)
Dew Point: 73 F (23 C)
Relative Humidity: 78%
Pressure (altimeter): 29.80 in. Hg (1009 hPa)
ob: MPTO 181300Z 31003KT 9000 SCT018 27/23 Q1009 NOSIG
cycle: 13

Station Type Date Time Source
MPTO TAF 2020/01/18 12:00 UTC NOAA

TAF MPTO 181100Z 1812/1918 04008KT 9999 SCT018
TEMPO 1822/1824 33012KT
BECMG 1901/1905 04005KT

Example: see airport list